KSCH/SCH METAR and TAF weather

Enter ICAO airport designator
Station Type Date Time Source
KSCH METAR 2019/05/25 01:47 UTC NOAA

KSCH 250147Z 03004KT 10SM SCT030 SCT035 OVC050 14/11 A3014 RMK LAST


Station Type Date Time Source
KSCH Decoded METAR 2019/05/25 01:47 UTC NOAA

Schenectady Airport, NY, United States (KSCH) 42-51N 073-56W
May 24, 2019 - 09:47 PM EDT / 2019.05.25 0147 UTC
Wind: from the NNE (030 degrees) at 5 MPH (4 KT):0
Visibility: 10 mile(s):0
Sky conditions: overcast
Temperature: 57 F (14 C)
Dew Point: 51 F (11 C)
Relative Humidity: 82%
Pressure (altimeter): 30.14 in. Hg (1020 hPa)
ob: KSCH 250147Z 03004KT 10SM SCT030 SCT035 OVC050 14/11 A3014 RMK LAST
cycle: 2

Station Type Date Time Source
KSCH TAF UTC NOAA

Error!

Example: see airport list